86NC weather

Craig Craft Airport
Hertford, North Carolina, United States

Public forecast

Using degrees Fahrenheit for public forecast. Weather courtesy of forecast.io.

Closest aviation weather report (METAR) to Craig Craft Airport

Closest report is Northeastern Regional Airport, 14.6 nm (27.1 km) SSW. Retrieved 2020/03/28 14:15 UTC (57 seconds ago):

KEDE 281415Z AUTO 20004KT 10SM CLR 20/19 A2999 RMK AO2 T02010186

Closest aviation forecast (TAF) to Craig Craft Airport

Closest forecast is Elizabeth City Regional Airport & Coast Guard Air Station, 15.4 nm (28.6 km) E. Retrieved 2020/03/28 13:09 UTC (1 hour ago):

TAF KECG 281303Z 2813/2912 13004KT 1/4SM FG VV002 TEMPO 2813/2814 1SM BR BKN002 FM281400 14007KT 2SM BR SCT003 BKN007 FM281500 17008KT P6SM SCT015 BKN060 FM281900 19009KT P6SM BKN200 FM290400 21008KT P6SM SCT250